Time;durP1;ratioP1;P1;durP2;ratioP2;P2;SDS_P1;SDS_P2;PMS_P1;PMS_P2;Temp;Humidity;BMP_temperature;BMP_pressure;BME280_temperature;BME280_humidity;BME280_pressure;Samples;Min_cycle;Max_cycle;Signal;HPM_P1;HPM_P2
2022/09/05 00:01:58;;;;;;;;;6.75;6.75;;;;;20.86;56.24;101881.50;5007915;28;8845;-65
2022/09/05 00:04:46;;;;;;;;;5.75;5.75;;;;;20.82;56.09;101872.09;5074705;22;8877;-68
2022/09/05 00:07:20;;;;;;;;;6.50;6.50;;;;;20.81;55.91;101870.44;5053794;28;8849;-66
2022/09/05 00:10:10;;;;;;;;;5.00;5.00;;;;;20.80;55.63;101883.28;5071496;28;8857;-67
2022/09/05 00:12:37;;;;;;;;;7.00;6.50;;;;;20.77;55.65;101870.06;5054353;28;8855;-66
2022/09/05 00:15:27;;;;;;;;;7.00;7.00;;;;;20.74;55.74;101882.34;5072978;28;8827;-66
2022/09/05 00:18:35;;;;;;;;;5.50;5.50;;;;;20.71;55.90;101885.56;5072766;28;8823;-67
2022/09/05 00:21:59;;;;;;;;;6.00;6.00;;;;;20.69;55.98;101876.72;5053013;28;8841;-67
2022/09/05 00:25:02;;;;;;;;;5.75;5.00;;;;;20.64;55.90;101873.88;5070495;28;8858;-67
2022/09/05 00:28:01;;;;;;;;;6.75;6.25;;;;;20.62;55.71;101878.78;5072424;28;8839;-66
2022/09/05 00:31:14;;;;;;;;;7.00;5.00;;;;;20.59;55.60;101870.19;5072243;28;8799;-67
2022/09/05 00:34:38;;;;;;;;;5.50;5.50;;;;;20.58;55.52;101874.84;5072709;28;8853;-67
2022/09/05 00:37:45;;;;;;;;;6.00;6.00;;;;;20.57;55.58;101873.16;5072215;28;8949;-67
2022/09/05 00:40:39;;;;;;;;;5.75;5.25;;;;;20.56;55.82;101871.50;5071336;28;9037;-67
2022/09/05 00:43:23;;;;;;;;;6.00;6.00;;;;;20.55;55.96;101869.84;5070606;28;9488;-67
2022/09/05 00:46:00;;;;;;;;;5.50;5.25;;;;;20.53;56.09;101871.13;5067241;28;9598;-67
2022/09/05 00:48:43;;;;;;;;;6.00;6.00;;;;;20.49;56.08;101868.03;5072293;28;8834;-67
2022/09/05 00:51:33;;;;;;;;;5.75;5.50;;;;;20.45;56.28;101862.16;5069362;28;8867;-67
2022/09/05 00:54:00;;;;;;;;;7.50;7.50;;;;;20.43;56.04;101868.94;5052304;28;9608;-67
2022/09/05 00:56:49;;;;;;;;;7.75;7.75;;;;;20.36;56.15;101860.84;5052697;28;8829;-67
2022/09/05 00:59:41;;;;;;;;;7.25;6.75;;;;;20.34;56.20;101868.47;5071198;28;8827;-67
2022/09/05 01:02:39;;;;;;;;;7.00;7.00;;;;;20.34;56.35;101856.69;5071857;28;8846;-67
2022/09/05 01:05:55;;;;;;;;;6.00;6.00;;;;;20.33;56.19;101865.94;5067179;28;8817;-66
2022/09/05 01:08:50;;;;;;;;;5.25;5.25;;;;;20.31;56.21;101863.44;5066129;28;8843;-65
2022/09/05 01:11:37;;;;;;;;;5.25;5.25;;;;;20.30;55.97;101863.69;5070226;28;8925;-66
2022/09/05 01:14:23;;;;;;;;;4.25;4.00;;;;;20.30;55.55;101860.97;5066722;28;8878;-65
2022/09/05 01:16:52;;;;;;;;;6.00;6.00;;;;;20.30;55.12;101872.72;5052078;28;8943;-66
2022/09/05 01:19:43;;;;;;;;;4.00;4.00;;;;;20.30;55.07;101872.72;5060988;28;8866;-66
2022/09/05 01:22:33;;;;;;;;;6.00;6.00;;;;;20.31;54.95;101874.38;5070380;28;8859;-65
2022/09/05 01:25:18;;;;;;;;;6.00;6.00;;;;;20.32;54.78;101880.69;5067521;28;8921;-65
2022/09/05 01:27:47;;;;;;;;;6.50;5.75;;;;;20.32;54.59;101876.03;5067728;28;8854;-65
2022/09/05 01:30:50;;;;;;;;;7.75;7.25;;;;;20.32;54.53;101869.75;5075536;28;8850;-65
2022/09/05 01:33:42;;;;;;;;;7.50;6.00;;;;;20.33;54.24;101874.13;5073256;28;8949;-66
2022/09/05 01:36:22;;;;;;;;;5.00;4.75;;;;;20.31;54.40;101868.09;5069767;28;8807;-66
2022/09/05 01:39:28;;;;;;;;;5.00;5.00;;;;;20.28;54.50;101871.28;5070067;28;8934;-65
2022/09/05 01:42:48;;;;;;;;;6.75;6.75;;;;;20.23;54.28;101870.09;5055465;28;9536;-66
2022/09/05 01:45:40;;;;;;;;;3.00;3.00;;;;;20.19;54.28;101868.88;5069095;28;8803;-66
2022/09/05 01:48:22;;;;;;;;;4.75;4.50;;;;;20.14;54.34;101865.19;5069219;28;8843;-65
2022/09/05 01:51:08;;;;;;;;;6.25;6.25;;;;;20.09;54.52;101867.78;5066844;28;8843;-65
2022/09/05 01:54:12;;;;;;;;;8.25;6.75;;;;;20.05;54.93;101874.75;5066173;28;8920;-65
2022/09/05 01:57:26;;;;;;;;;4.25;4.25;;;;;20.02;54.74;101867.06;5066184;28;8831;-64
2022/09/05 02:00:15;;;;;;;;;6.00;6.00;;;;;19.99;54.87;101868.34;5059838;28;9669;-64
2022/09/05 02:03:14;;;;;;;;;4.50;4.50;;;;;19.96;54.95;101864.16;5070422;28;8846;-66
2022/09/05 02:06:11;;;;;;;;;5.25;5.25;;;;;19.92;55.08;101865.69;5071502;28;8812;-66
2022/09/05 02:09:02;;;;;;;;;6.00;6.00;;;;;19.88;55.23;101864.47;5071664;28;8819;-65
2022/09/05 02:11:51;;;;;;;;;5.00;4.25;;;;;19.85;55.45;101861.38;5071752;28;8819;-65
2022/09/05 02:14:28;;;;;;;;;6.50;6.50;;;;;19.81;55.53;101862.91;5077810;28;8936;-66
2022/09/05 02:17:15;;;;;;;;;6.25;5.75;;;;;19.79;55.63;101865.88;5068049;28;8873;-66
2022/09/05 02:20:33;;;;;;;;;8.00;7.00;;;;;19.77;55.65;101859.81;5063982;28;8869;-66
2022/09/05 02:23:29;;;;;;;;;6.50;6.50;;;;;19.75;55.54;101854.56;5065461;28;8889;-66
2022/09/05 02:26:28;;;;;;;;;8.75;6.75;;;;;19.73;55.75;101851.25;5069293;28;8827;-66
2022/09/05 02:29:01;;;;;;;;;5.00;5.00;;;;;19.74;55.53;101850.19;5067912;28;8921;-64
2022/09/05 02:31:47;;;;;;;;;4.25;4.25;;;;;19.74;55.30;101855.66;5069929;28;8839;-66
2022/09/05 02:34:32;;;;;;;;;6.25;6.25;;;;;19.75;55.52;101856.47;5084662;28;8839;-66
2022/09/05 02:37:34;;;;;;;;;6.00;6.00;;;;;19.73;55.57;101855.88;5066294;28;8855;-65
2022/09/05 02:40:35;;;;;;;;;4.75;4.75;;;;;19.69;55.64;101855.50;5068916;28;9545;-65
2022/09/05 02:43:35;;;;;;;;;9.00;7.25;;;;;19.66;55.55;101861.44;5068445;28;8859;-64
2022/09/05 02:46:46;;;;;;;;;6.00;6.00;;;;;19.65;55.77;101859.78;5069119;28;8827;-66
2022/09/05 02:49:21;;;;;;;;;6.75;6.75;;;;;19.64;55.84;101857.25;5069649;28;8827;-66
2022/09/05 02:52:12;;;;;;;;;6.00;6.00;;;;;19.62;55.88;101857.50;5070481;28;8865;-66
2022/09/05 02:55:00;;;;;;;;;5.00;5.00;;;;;19.62;55.79;101865.69;5069636;28;8799;-67
2022/09/05 02:58:09;;;;;;;;;6.00;5.00;;;;;19.60;55.70;101870.50;5064652;28;8866;-66
2022/09/05 03:00:51;;;;;;;;;6.50;6.50;;;;;19.58;55.93;101863.63;5062285;28;8815;-66
2022/09/05 03:03:38;;;;;;;;;6.00;6.00;;;;;19.56;56.07;101866.56;5070057;28;8901;-66
2022/09/05 03:06:32;;;;;;;;;4.00;4.00;;;;;19.52;55.90;101871.63;5069343;28;8896;-66
2022/09/05 03:09:15;;;;;;;;;5.00;5.00;;;;;19.54;55.68;101863.22;5070007;28;8819;-63
2022/09/05 03:12:14;;;;;;;;;4.50;4.50;;;;;19.60;55.63;101866.94;5070519;28;8819;-67
2022/09/05 03:15:19;;;;;;;;;7.75;7.00;;;;;19.62;55.66;101876.59;5065366;28;8858;-67
2022/09/05 03:18:27;;;;;;;;;5.00;5.00;;;;;19.63;55.58;101870.06;5065030;28;8941;-68
2022/09/05 03:21:14;;;;;;;;;4.50;4.50;;;;;19.63;55.56;101863.78;5068049;28;8893;-64
2022/09/05 03:24:09;;;;;;;;;5.50;5.25;;;;;19.63;55.60;101861.06;5069261;28;9614;-67
2022/09/05 03:26:57;;;;;;;;;4.75;4.50;;;;;19.65;55.50;101862.50;5067987;28;8826;-67
2022/09/05 03:29:40;;;;;;;;;4.50;4.50;;;;;19.68;55.44;101863.91;5068892;28;8834;-67
2022/09/05 03:32:27;;;;;;;;;5.25;5.00;;;;;19.70;55.37;101868.09;5069200;28;8884;-66
2022/09/05 03:35:07;;;;;;;;;5.75;5.75;;;;;19.69;55.40;101866.44;5068368;28;8892;-66
2022/09/05 03:37:53;;;;;;;;;4.75;4.75;;;;;19.71;55.08;101874.41;5060719;28;8832;-67
2022/09/05 03:40:45;;;;;;;;;4.50;4.50;;;;;19.71;55.09;101867.03;5069122;28;8872;-67
2022/09/05 03:43:42;;;;;;;;;5.25;5.25;;;;;19.71;55.02;101864.28;5066522;28;8861;-66
2022/09/05 03:46:30;;;;;;;;;5.00;5.00;;;;;19.71;54.93;101864.28;5067555;28;8811;-67
2022/09/05 03:49:05;;;;;;;;;4.00;4.00;;;;;19.72;55.06;101862.41;5070556;28;8823;-67
2022/09/05 03:52:32;;;;;;;;;5.75;5.75;;;;;19.71;54.93;101864.28;5068406;28;8912;-67
2022/09/05 03:55:35;;;;;;;;;3.75;3.75;;;;;19.72;54.92;101865.13;5065762;28;8823;-67
2022/09/05 03:59:11;;;;;;;;;5.25;5.25;;;;;19.69;55.23;101862.88;5072516;28;8850;-67
2022/09/05 04:01:43;;;;;;;;;7.25;5.75;;;;;19.67;55.31;101867.72;5067121;28;8878;-67
2022/09/05 04:04:37;;;;;;;;;5.00;5.00;;;;;19.64;55.35;101858.06;5071161;28;8870;-67
2022/09/05 04:07:32;;;;;;;;;4.25;4.25;;;;;19.63;55.52;101859.16;5067104;28;8831;-67
2022/09/05 04:10:52;;;;;;;;;7.00;7.00;;;;;19.61;55.57;101861.28;5067956;28;8819;-67
2022/09/05 04:13:27;;;;;;;;;6.75;6.25;;;;;19.56;55.71;101858.34;5072381;28;8862;-67
2022/09/05 04:16:12;;;;;;;;;6.25;5.75;;;;;19.54;55.57;101863.22;5073253;28;8933;-67
2022/09/05 04:18:44;;;;;;;;;6.25;6.25;;;;;19.50;55.95;101871.03;5071945;28;8908;-67
2022/09/05 04:21:17;;;;;;;;;6.25;6.25;;;;;19.47;56.18;101873.41;5071503;28;8831;-68
2022/09/05 04:23:59;;;;;;;;;6.00;5.00;;;;;19.45;56.02;101875.53;5065787;28;8879;-66
2022/09/05 04:26:47;;;;;;;;;5.00;5.00;;;;;19.42;56.08;101870.53;5073265;28;8835;-67
2022/09/05 04:29:23;;;;;;;;;6.00;6.00;;;;;19.37;56.29;101865.75;5067042;28;8834;-67
2022/09/05 04:32:14;;;;;;;;;7.50;6.25;;;;;19.36;56.52;101860.50;5076412;28;8832;-66
2022/09/05 04:35:26;;;;;;;;;6.25;4.00;;;;;19.37;56.27;101873.09;5093207;28;9509;-66
2022/09/05 04:38:16;;;;;;;;;5.00;4.75;;;;;19.38;56.30;101866.56;5088625;28;8989;-67
2022/09/05 04:40:59;;;;;;;;;6.00;6.00;;;;;19.36;56.46;101874.16;5071806;28;8835;-67
2022/09/05 04:43:48;;;;;;;;;6.00;6.00;;;;;19.33;56.44;101869.16;5072092;28;8863;-66
2022/09/05 04:46:46;;;;;;;;;7.00;7.00;;;;;19.31;56.64;101863.91;5070509;28;8831;-67
2022/09/05 04:49:23;;;;;;;;;3.75;3.75;;;;;19.27;56.65;101860.81;5071704;28;8811;-66
2022/09/05 04:52:04;;;;;;;;;6.00;6.00;;;;;19.26;56.92;101866.50;5066129;28;8826;-67
2022/09/05 04:54:46;;;;;;;;;6.75;6.75;;;;;19.23;56.85;101880.59;5067165;28;9586;-67
2022/09/05 04:57:28;;;;;;;;;7.00;6.75;;;;;19.19;57.12;101863.00;5073573;28;8827;-65
2022/09/05 05:00:10;;;;;;;;;8.00;7.75;;;;;19.19;57.07;101871.19;5070346;28;8834;-67
2022/09/05 05:03:01;;;;;;;;;6.00;6.00;;;;;19.19;57.18;101871.19;5067959;28;8869;-66
2022/09/05 05:05:47;;;;;;;;;4.75;4.75;;;;;19.20;57.23;101870.97;5056194;28;8857;-66
2022/09/05 05:08:43;;;;;;;;;7.00;7.00;;;;;19.18;57.28;101866.81;5076467;28;9569;-64
2022/09/05 05:11:56;;;;;;;;;6.25;6.25;;;;;19.16;57.24;101867.03;5074199;28;8882;-64
2022/09/05 05:14:48;;;;;;;;;6.00;6.00;;;;;19.15;57.36;101869.97;5025210;28;8811;-65
2022/09/05 05:17:51;;;;;;;;;9.00;8.25;;;;;19.12;57.49;101876.75;5074724;28;8831;-65
2022/09/05 05:20:58;;;;;;;;;7.67;6.33;;;;;19.11;57.50;101874.22;5069728;28;9548;-63
2022/09/05 05:23:52;;;;;;;;;5.00;5.00;;;;;19.13;57.85;101878.41;5069965;28;8958;-64
2022/09/05 05:26:28;;;;;;;;;6.50;6.25;;;;;19.13;57.79;101872.94;5059642;28;9653;-66
2022/09/05 05:28:58;;;;;;;;;9.25;7.25;;;;;19.15;58.07;101875.44;5069230;28;8827;-68
2022/09/05 05:31:31;;;;;;;;;6.75;6.75;;;;;19.16;57.93;101877.97;5071509;28;8938;-66
2022/09/05 05:34:02;;;;;;;;;6.75;6.75;;;;;19.18;58.08;101872.25;5070919;28;8850;-67
2022/09/05 05:37:36;;;;;;;;;7.00;6.75;;;;;19.20;58.03;101875.59;5065891;28;8834;-67
2022/09/05 05:40:11;;;;;;;;;11.67;9.33;;;;;19.18;57.91;101869.53;5068178;28;8823;-70
2022/09/05 05:42:39;;;;;;;;;8.00;8.00;;;;;19.20;58.24;101881.91;5067275;28;9030;-67
2022/09/05 05:45:17;;;;;;;;;8.00;7.75;;;;;19.22;58.18;101881.66;5070814;28;8986;-67
2022/09/05 05:47:50;;;;;;;;;7.75;6.50;;;;;19.21;58.11;101882.72;5076920;28;8835;-67
2022/09/05 05:50:37;;;;;;;;;6.00;6.00;;;;;19.22;58.09;101881.66;5071467;28;8872;-67
2022/09/05 05:53:28;;;;;;;;;7.50;7.25;;;;;19.24;58.22;101890.44;5070598;28;8827;-66
2022/09/05 05:56:46;;;;;;;;;8.00;6.75;;;;;19.22;58.37;101885.22;5069331;28;8827;-66
2022/09/05 05:59:41;;;;;;;;;7.25;7.25;;;;;19.25;58.35;101876.59;5071568;28;8811;-67
2022/09/05 06:02:35;;;;;;;;;7.25;7.25;;;;;19.23;58.82;101883.31;5056595;28;8794;-67
2022/09/05 06:05:24;;;;;;;;;8.67;8.67;;;;;19.29;58.50;101890.63;5097431;22;8977;-65
2022/09/05 06:08:28;;;;;;;;;6.25;6.25;;;;;19.37;58.45;101894.94;5064699;28;8916;-65
2022/09/05 06:11:32;;;;;;;;;7.00;7.00;;;;;19.42;58.36;101892.38;5070277;28;8815;-65
2022/09/05 06:14:56;;;;;;;;;6.00;6.00;;;;;19.48;58.33;101899.63;5069329;28;8834;-65
2022/09/05 06:18:05;;;;;;;;;6.25;6.25;;;;;19.54;58.28;101906.09;5069863;28;9632;-65
2022/09/05 06:21:08;;;;;;;;;10.50;9.50;;;;;19.60;58.20;101902.44;5066615;28;8846;-66
2022/09/05 06:24:05;;;;;;;;;7.75;7.50;;;;;19.65;57.91;101903.47;5032610;28;8852;-65
2022/09/05 06:26:59;;;;;;;;;10.25;9.25;;;;;19.71;58.07;101909.91;5029131;28;8867;-64
2022/09/05 06:30:06;;;;;;;;;6.50;6.50;;;;;19.74;57.90;101910.28;5030993;28;8963;-65
2022/09/05 06:33:10;;;;;;;;;7.25;7.00;;;;;19.81;57.81;101914.81;5030476;28;8848;-63
2022/09/05 06:35:59;;;;;;;;;8.25;8.25;;;;;19.85;57.51;101911.44;5042709;28;8938;-64
2022/09/05 06:38:55;;;;;;;;;10.25;9.00;;;;;19.88;57.32;101908.22;5030247;28;8832;-65
2022/09/05 06:41:50;;;;;;;;;5.00;5.00;;;;;19.95;57.33;101903.50;5030580;28;8840;-65
2022/09/05 06:44:52;;;;;;;;;7.25;7.25;;;;;20.03;57.17;101905.06;5013607;28;8836;-64
2022/09/05 06:47:24;;;;;;;;;6.00;6.00;;;;;20.09;57.22;101906.88;5040284;28;8809;-66
2022/09/05 06:50:04;;;;;;;;;9.50;7.75;;;;;20.15;56.96;101910.59;5050270;28;8817;-66
2022/09/05 06:53:23;;;;;;;;;8.75;7.00;;;;;20.18;56.92;101907.41;5050445;28;8844;-65
2022/09/05 06:56:18;;;;;;;;;9.75;9.00;;;;;20.23;56.70;101902.06;5049106;28;8806;-65
2022/09/05 06:59:14;;;;;;;;;7.00;7.00;;;;;20.29;56.83;101909.31;5049339;28;8865;-65
2022/09/05 07:01:57;;;;;;;;;9.00;9.00;;;;;20.34;56.66;101906.75;5060629;28;8831;-65
2022/09/05 07:04:45;;;;;;;;;5.25;5.00;;;;;20.45;56.50;101919.59;5070004;28;8858;-65
2022/09/05 07:07:53;;;;;;;;;5.75;5.75;;;;;20.54;56.46;101920.16;5069953;28;8941;-65
2022/09/05 07:10:25;;;;;;;;;8.00;8.00;;;;;20.56;56.54;101915.25;5070239;28;8800;-65
2022/09/05 07:13:20;;;;;;;;;6.50;5.75;;;;;20.59;56.25;101916.72;5050657;28;8841;-65
2022/09/05 07:16:05;;;;;;;;;5.25;5.25;;;;;20.60;55.90;101919.19;5049046;28;8818;-65
2022/09/05 07:19:04;;;;;;;;;8.75;7.25;;;;;20.61;55.92;101920.03;5049698;28;8849;-64
2022/09/05 07:21:59;;;;;;;;;4.50;4.50;;;;;20.64;55.73;101925.88;5051725;28;8956;-65
2022/09/05 07:24:27;;;;;;;;;6.25;6.25;;;;;20.65;55.59;101916.56;5052774;28;8924;-64
2022/09/05 07:27:35;;;;;;;;;6.25;6.25;;;;;20.70;55.76;101926.81;5045782;28;8834;-64
2022/09/05 07:30:22;;;;;;;;;5.00;5.00;;;;;20.77;55.73;101929.44;5054170;28;8814;-65
2022/09/05 07:32:53;;;;;;;;;6.75;6.75;;;;;20.80;55.71;101926.25;5053713;28;8838;-64
2022/09/05 07:35:32;;;;;;;;;8.00;7.25;;;;;20.83;55.54;101931.25;5053838;28;8846;-64
2022/09/05 07:38:27;;;;;;;;;8.00;8.00;;;;;20.81;55.52;101933.38;5053761;28;8853;-65
2022/09/05 07:41:29;;;;;;;;;10.00;7.50;;;;;20.84;55.62;101941.97;5064780;28;8815;-64
2022/09/05 07:44:01;;;;;;;;;6.00;6.00;;;;;20.89;55.64;101944.81;5073660;28;8865;-65
2022/09/05 07:46:35;;;;;;;;;5.75;4.50;;;;;20.95;55.79;101949.34;5073251;28;9534;-65
2022/09/05 07:49:06;;;;;;;;;6.00;5.00;;;;;21.04;55.68;101951.75;5073821;28;8877;-64
2022/09/05 07:51:36;;;;;;;;;6.00;6.00;;;;;21.12;55.38;101959.59;5073459;28;9871;-65
2022/09/05 07:54:27;;;;;;;;;5.75;5.00;;;;;21.20;54.83;101953.78;5073392;28;8823;-64
2022/09/05 07:57:22;;;;;;;;;8.00;5.00;;;;;21.30;54.44;101953.16;5071901;28;8823;-64
2022/09/05 08:00:11;;;;;;;;;4.50;4.50;;;;;21.39;54.54;101957.22;5073310;28;8916;-65
2022/09/05 08:02:53;;;;;;;;;4.50;4.00;;;;;21.46;54.37;101956.03;5073199;28;8940;-66
2022/09/05 08:05:22;;;;;;;;;3.00;3.00;;;;;21.57;54.16;101962.59;5073360;28;8823;-65
2022/09/05 08:08:07;;;;;;;;;6.25;6.00;;;;;21.64;53.89;101952.34;5073208;28;8827;-66
2022/09/05 08:10:41;;;;;;;;;4.75;4.75;;;;;21.77;53.89;101953.16;5058717;28;8962;-65
2022/09/05 08:13:48;;;;;;;;;5.00;4.00;;;;;21.86;53.12;101954.44;5033054;28;8848;-65
2022/09/05 08:16:19;;;;;;;;;5.50;5.50;;;;;21.94;52.89;101951.31;5033244;28;8820;-66
2022/09/05 08:18:59;;;;;;;;;4.25;4.25;;;;;22.02;52.91;101950.91;5033005;28;8832;-65
2022/09/05 08:21:51;;;;;;;;;8.00;7.00;;;;;22.09;52.13;101943.38;5033054;28;8824;-66
2022/09/05 08:24:35;;;;;;;;;5.75;5.00;;;;;22.17;51.74;101942.19;5033050;28;9680;-65
2022/09/05 08:27:04;;;;;;;;;6.25;6.00;;;;;22.27;51.51;101947.88;5042627;28;8821;-65
2022/09/05 08:29:52;;;;;;;;;8.50;6.00;;;;;22.34;51.34;101953.22;5065478;28;8823;-65
2022/09/05 08:32:53;;;;;;;;;6.50;5.50;;;;;22.41;50.97;101948.41;5071893;28;9540;-65
2022/09/05 08:35:39;;;;;;;;;4.00;3.25;;;;;22.47;51.21;101947.41;5072407;28;8831;-65
2022/09/05 08:38:07;;;;;;;;;5.50;4.75;;;;;22.51;50.91;101947.75;5072595;28;8917;-65
2022/09/05 08:40:46;;;;;;;;;4.00;4.00;;;;;22.62;50.63;101944.13;5072598;28;8938;-65
2022/09/05 08:43:30;;;;;;;;;4.00;4.00;;;;;22.66;50.63;101943.38;5070899;28;8950;-66
2022/09/05 08:46:23;;;;;;;;;4.50;4.50;;;;;22.79;50.46;101939.47;5072663;28;8920;-66
2022/09/05 08:49:28;;;;;;;;;5.50;5.00;;;;;22.86;50.15;101940.13;5071390;28;8811;-65
2022/09/05 08:52:35;;;;;;;;;4.00;4.00;;;;;22.94;49.93;101947.16;5072421;28;9536;-65
2022/09/05 08:55:30;;;;;;;;;4.25;4.25;;;;;23.03;49.61;101947.56;5070618;28;8835;-65
2022/09/05 08:58:05;;;;;;;;;7.00;7.00;;;;;23.07;49.44;101940.50;5071118;28;8822;-65
2022/09/05 09:00:43;;;;;;;;;7.00;6.75;;;;;23.08;49.18;101942.97;5072052;28;8835;-65
2022/09/05 09:03:59;;;;;;;;;4.25;4.25;;;;;23.12;49.09;101946.06;5072303;28;8961;-65
2022/09/05 09:06:45;;;;;;;;;2.25;2.25;;;;;23.20;49.02;101940.13;5072054;28;8850;-66
2022/09/05 09:09:41;;;;;;;;;4.00;4.00;;;;;23.25;48.13;101939.38;5070846;28;8812;-66
2022/09/05 09:12:40;;;;;;;;;5.75;5.00;;;;;23.27;48.15;101935.31;5072228;28;8855;-65
2022/09/05 09:15:13;;;;;;;;;3.50;3.50;;;;;23.37;48.02;101929.94;5070589;28;8905;-66
2022/09/05 09:17:42;;;;;;;;;3.50;3.50;;;;;23.51;47.51;101930.41;5071813;28;9633;-65
2022/09/05 09:20:18;;;;;;;;;3.00;3.00;;;;;23.58;47.21;101924.75;5071994;28;8820;-65
2022/09/05 09:23:15;;;;;;;;;3.75;3.75;;;;;23.63;47.36;101922.88;5071780;28;8831;-65
2022/09/05 09:26:15;;;;;;;;;1.25;1.25;;;;;23.68;47.31;101913.88;5052493;28;8918;-66
2022/09/05 09:29:01;;;;;;;;;2.25;2.25;;;;;23.79;46.93;101915.69;5051610;28;8833;-65
2022/09/05 09:31:34;;;;;;;;;3.00;3.00;;;;;23.91;46.64;101912.81;5065246;28;8835;-65
2022/09/05 09:34:25;;;;;;;;;2.75;2.00;;;;;24.03;46.10;101912.66;5070551;28;8831;-65
2022/09/05 09:37:07;;;;;;;;;4.75;4.75;;;;;24.16;45.66;101910.31;5071269;28;8831;-65
2022/09/05 09:39:36;;;;;;;;;3.00;3.00;;;;;24.29;45.08;101905.50;5071576;28;8846;-65
2022/09/05 09:42:24;;;;;;;;;2.25;2.25;;;;;24.39;45.13;101905.63;5070269;28;8908;-65
2022/09/05 09:45:04;;;;;;;;;3.00;3.00;;;;;24.37;45.69;101905.00;5060203;28;8852;-65
2022/09/05 09:48:10;;;;;;;;;4.00;4.00;;;;;24.30;45.10;101905.22;5051209;28;9537;-65
2022/09/05 09:50:46;;;;;;;;;5.00;5.00;;;;;24.44;45.40;101902.09;5051338;28;9360;-66
2022/09/05 09:54:08;;;;;;;;;4.50;4.50;;;;;24.53;45.22;101898.59;5050179;28;8927;-65
2022/09/05 09:57:18;;;;;;;;;5.00;4.75;;;;;24.53;45.76;101906.03;5050811;28;8830;-65
2022/09/05 10:00:08;;;;;;;;;1.00;1.00;;;;;24.54;45.38;101897.47;5051152;28;8825;-66
2022/09/05 10:02:54;;;;;;;;;3.00;3.00;;;;;24.71;44.17;101897.34;5031256;28;8875;-65
2022/09/05 10:06:00;;;;;;;;;4.25;3.25;;;;;24.95;43.15;101897.78;5066299;28;8823;-65
2022/09/05 10:09:12;;;;;;;;;3.75;3.75;;;;;25.06;42.27;101894.03;5055772;28;8977;-63
2022/09/05 10:12:23;;;;;;;;;2.00;2.00;;;;;25.12;42.52;101895.75;5070995;28;9588;-65
2022/09/05 10:15:18;;;;;;;;;5.00;5.00;;;;;25.19;42.49;101878.13;5070870;28;8920;-65
2022/09/05 10:18:23;;;;;;;;;2.75;2.75;;;;;25.24;42.11;101883.66;5067483;28;8851;-66
2022/09/05 10:21:08;;;;;;;;;4.00;3.75;;;;;25.28;41.93;101882.91;5069519;28;8819;-65
2022/09/05 10:23:52;;;;;;;;;4.00;4.00;;;;;25.29;41.32;101883.72;5070592;28;8878;-65
2022/09/05 10:26:51;;;;;;;;;2.00;2.00;;;;;25.38;40.72;101890.38;5070657;28;8897;-65
2022/09/05 10:29:42;;;;;;;;;4.00;4.00;;;;;25.44;40.83;101881.00;5070659;28;8916;-65
2022/09/05 10:32:39;;;;;;;;;2.75;2.75;;;;;25.43;40.28;101873.03;5070672;28;8884;-65
2022/09/05 10:35:42;;;;;;;;;2.00;2.00;;;;;25.48;40.02;101870.28;5051868;28;8826;-66
2022/09/05 10:38:14;;;;;;;;;4.00;4.00;;;;;25.58;40.15;101873.09;5050303;28;8834;-66
2022/09/05 10:40:44;;;;;;;;;3.75;3.75;;;;;25.56;39.29;101867.00;5049187;28;8834;-66
2022/09/05 10:43:43;;;;;;;;;4.50;4.50;;;;;25.49;38.44;101870.03;5049043;28;8968;-66
2022/09/05 10:46:43;;;;;;;;;3.75;3.75;;;;;25.60;38.35;101863.47;5049293;28;8956;-66
2022/09/05 10:49:22;;;;;;;;;4.00;2.75;;;;;25.64;38.79;101866.47;5050086;28;8825;-66
2022/09/05 10:52:18;;;;;;;;;3.50;3.50;;;;;25.64;38.88;101866.47;5050433;28;8836;-66
2022/09/05 10:55:17;;;;;;;;;4.00;4.00;;;;;25.73;38.57;101856.59;5049934;28;8908;-66
2022/09/05 10:57:49;;;;;;;;;5.75;4.75;;;;;25.83;39.17;101859.41;5049717;28;8903;-66
2022/09/05 11:00:49;;;;;;;;;3.00;3.00;;;;;25.93;38.14;101872.41;5050244;28;8806;-66
2022/09/05 11:04:06;;;;;;;;;3.00;2.25;;;;;25.99;38.35;101870.50;5040563;28;8937;-65
2022/09/05 11:06:51;;;;;;;;;1.00;1.00;;;;;26.04;38.54;101865.78;5041536;28;8834;-64
2022/09/05 11:09:37;;;;;;;;;4.00;3.00;;;;;26.13;38.03;101860.59;5050253;28;8822;-64
2022/09/05 11:12:31;;;;;;;;;3.50;3.50;;;;;26.28;38.08;101851.47;5050140;28;8814;-65
2022/09/05 11:15:00;;;;;;;;;4.00;3.25;;;;;26.24;37.20;101853.97;5050227;28;8849;-64
2022/09/05 11:17:41;;;;;;;;;4.00;4.00;;;;;26.29;36.59;101853.97;5047608;28;8823;-65
2022/09/05 11:20:28;;;;;;;;;4.25;3.50;;;;;26.19;36.97;101855.91;5030055;28;9635;-64
2022/09/05 11:23:18;;;;;;;;;3.00;3.00;;;;;26.33;36.12;101859.75;5030150;28;8917;-65
2022/09/05 11:25:49;;;;;;;;;4.00;4.00;;;;;26.34;36.39;101850.38;5028731;28;9142;-64
2022/09/05 11:28:27;;;;;;;;;3.75;2.75;;;;;26.44;36.20;101844.84;5029724;28;8832;-62
2022/09/05 11:30:56;;;;;;;;;5.25;3.75;;;;;26.46;35.94;101848.22;5029961;28;8975;-64
2022/09/05 11:33:46;;;;;;;;;5.00;2.75;;;;;26.46;36.26;101850.16;5064847;28;8819;-63
2022/09/05 11:36:46;;;;;;;;;3.75;3.75;;;;;26.47;35.90;101843.50;5069659;28;8827;-64
2022/09/05 11:40:13;;;;;;;;;2.00;2.00;;;;;26.50;36.03;101842.97;5068591;28;8811;-64
2022/09/05 11:43:27;;;;;;;;;4.00;3.75;;;;;26.61;35.77;101848.19;5068796;28;9614;-64
2022/09/05 11:46:09;;;;;;;;;3.75;3.75;;;;;26.62;36.01;101846.28;5069915;28;8819;-65
2022/09/05 11:48:41;;;;;;;;;2.00;2.00;;;;;26.59;36.32;101849.56;5059937;28;8836;-65
2022/09/05 11:51:30;;;;;;;;;1.00;1.00;;;;;26.53;36.63;101847.91;5049413;28;8845;-65
2022/09/05 11:54:30;;;;;;;;;3.75;3.00;;;;;26.47;36.40;101852.63;5049698;28;8846;-64
2022/09/05 11:57:22;;;;;;;;;6.50;5.75;;;;;26.44;36.07;101839.31;5049514;28;8810;-65
2022/09/05 12:00:22;;;;;;;;;3.75;3.75;;;;;26.43;36.35;101848.72;5048417;28;8830;-64
2022/09/05 12:03:37;;;;;;;;;2.00;2.00;;;;;26.43;36.59;101851.47;5049766;28;8973;-64
2022/09/05 12:06:30;;;;;;;;;3.00;3.00;;;;;26.44;36.14;101844.84;5049403;28;9577;-66
2022/09/05 12:09:25;;;;;;;;;2.00;2.00;;;;;26.47;36.22;101849.03;5051851;28;8844;-66
2022/09/05 12:12:25;;;;;;;;;3.00;3.00;;;;;26.54;36.09;101835.78;5051676;28;8830;-66
2022/09/05 12:15:36;;;;;;;;;3.00;3.00;;;;;26.69;35.74;101834.91;5051437;28;8822;-66
2022/09/05 12:18:39;;;;;;;;;4.00;2.75;;;;;26.96;34.87;101835.41;5052567;28;8854;-65
2022/09/05 12:21:27;;;;;;;;;4.00;3.00;;;;;27.08;35.27;101830.41;5053242;28;8948;-66
2022/09/05 12:24:19;;;;;;;;;4.00;3.75;;;;;27.10;35.38;101831.00;5052810;28;8888;-66
2022/09/05 12:27:09;;;;;;;;;3.25;3.25;;;;;27.02;35.65;101828.78;5052568;28;9545;-66
2022/09/05 12:30:02;;;;;;;;;2.75;2.75;;;;;27.03;35.33;101830.44;5046366;28;8872;-66
2022/09/05 12:32:32;;;;;;;;;4.00;4.00;;;;;27.09;35.18;101834.81;5032908;28;8824;-66
2022/09/05 12:35:30;;;;;;;;;2.25;2.25;;;;;27.19;35.27;101838.72;5033075;28;8848;-66
2022/09/05 12:38:57;;;;;;;;;4.25;3.75;;;;;27.24;34.66;101835.91;5032519;28;8808;-66
2022/09/05 12:42:18;;;;;;;;;6.25;5.00;;;;;27.43;34.32;101828.66;4992231;28;8836;-66
2022/09/05 12:45:09;;;;;;;;;4.25;3.00;;;;;27.49;34.67;101830.28;5057790;28;8831;-66
2022/09/05 12:48:28;;;;;;;;;3.75;3.75;;;;;27.45;34.61;101820.06;5072152;28;8846;-66
2022/09/05 12:51:19;;;;;;;;;5.00;5.00;;;;;27.41;34.79;101819.81;5072511;28;8835;-65
2022/09/05 12:54:32;;;;;;;;;2.50;2.50;;;;;27.47;34.34;101824.22;5072401;28;8831;-64
2022/09/05 12:57:25;;;;;;;;;2.50;2.50;;;;;27.47;34.50;101818.69;5072084;28;9536;-64
2022/09/05 13:00:15;;;;;;;;;3.75;3.75;;;;;27.60;34.29;101820.81;5059486;28;9194;-65
2022/09/05 13:03:04;;;;;;;;;5.25;3.75;;;;;27.70;33.96;101824.63;5032329;28;9781;-65
2022/09/05 13:06:08;;;;;;;;;4.00;3.00;;;;;27.79;33.78;101823.78;5032118;28;8832;-66
2022/09/05 13:08:50;;;;;;;;;3.00;3.00;;;;;27.84;34.50;101825.69;5032043;28;8891;-66
2022/09/05 13:11:27;;;;;;;;;4.00;2.75;;;;;27.94;33.94;101813.72;5032107;28;8859;-65
2022/09/05 13:14:26;;;;;;;;;3.00;3.00;;;;;28.02;33.52;101818.63;5040957;28;8960;-66
2022/09/05 13:17:14;;;;;;;;;3.00;3.00;;;;;28.01;33.47;101817.00;5071665;28;8954;-66
2022/09/05 13:19:49;;;;;;;;;4.25;4.25;;;;;28.06;33.15;101817.75;5071435;28;8819;-64
2022/09/05 13:22:20;;;;;;;;;2.50;2.50;;;;;28.06;33.46;101814.16;5071846;28;8842;-66
2022/09/05 13:25:07;;;;;;;;;3.00;3.00;;;;;28.09;33.92;101814.44;5071454;28;8905;-66
2022/09/05 13:27:39;;;;;;;;;3.25;3.25;;;;;28.12;33.73;101806.69;5070148;28;8827;-65